Time;durP1;ratioP1;P1;durP2;ratioP2;P2;SDS_P1;SDS_P2;PMS_P1;PMS_P2;Temp;Humidity;BMP_temperature;BMP_pressure;BME280_temperature;BME280_humidity;BME280_pressure;Samples;Min_cycle;Max_cycle;Signal;HPM_P1;HPM_P2
2024/02/16 00:00:05;;;;;;;11.63;4.45;;;;;;;8.35;100.00;98563.78;5028341;28;20022;-86
2024/02/16 00:02:32;;;;;;;7.55;4.63;;;;;;;8.58;100.00;98585.72;5011186;28;20093;-87
2024/02/16 00:04:58;;;;;;;10.75;4.65;;;;;;;8.39;100.00;98562.28;4999022;28;20500;-86
2024/02/16 00:07:23;;;;;;;10.65;4.72;;;;;;;8.46;100.00;98571.69;5031878;28;20076;-87
2024/02/16 00:09:49;;;;;;;11.27;5.25;;;;;;;8.39;100.00;98568.38;5007875;28;20471;-85
2024/02/16 00:12:14;;;;;;;5.20;3.88;;;;;;;8.46;100.00;98561.06;5013364;28;20052;-86
2024/02/16 00:14:40;;;;;;;7.68;4.55;;;;;;;8.37;100.00;98535.91;5026284;28;20058;-86
2024/02/16 00:17:07;;;;;;;8.88;4.20;;;;;;;8.15;99.86;98490.59;5015682;28;20045;-86
2024/02/16 00:19:32;;;;;;;6.63;4.43;;;;;;;8.17;100.00;98515.06;5031250;28;20057;-86
2024/02/16 00:21:57;;;;;;;6.18;4.65;;;;;;;8.65;100.00;98565.06;5012881;28;20148;-85
2024/02/16 00:24:23;;;;;;;10.95;4.30;;;;;;;8.58;99.46;98574.28;5010720;28;20029;-86
2024/02/16 00:26:49;;;;;;;9.65;4.65;;;;;;;8.38;99.21;98532.22;5015125;28;20030;-86
2024/02/16 00:29:14;;;;;;;5.07;4.22;;;;;;;8.72;99.10;98573.69;5030961;28;20400;-85
2024/02/16 00:31:40;;;;;;;6.97;4.45;;;;;;;8.68;99.37;98577.09;5028855;28;20029;-86
2024/02/16 00:34:06;;;;;;;4.18;3.60;;;;;;;8.68;99.32;98575.25;5027244;28;20053;-86
2024/02/16 00:36:34;;;;;;;6.13;4.10;;;;;;;8.67;98.46;98562.97;5027348;28;20033;-87
2024/02/16 00:38:59;;;;;;;4.45;4.05;;;;;;;8.62;98.01;98538.97;5029284;28;20087;-86
2024/02/16 00:41:25;;;;;;;5.40;3.83;;;;;;;8.60;98.49;98553.56;5012387;28;20116;-86
2024/02/16 00:43:52;;;;;;;4.40;4.00;;;;;;;8.75;98.34;98557.25;5030403;28;20047;-86
2024/02/16 00:46:17;;;;;;;7.38;3.83;;;;;;;8.67;98.01;98556.88;5027968;28;20022;-86
2024/02/16 00:48:43;;;;;;;7.25;4.32;;;;;;;8.72;98.55;98572.88;5027530;28;20103;-86
2024/02/16 00:51:08;;;;;;;6.88;3.92;;;;;;;8.70;98.30;98565.16;5015828;28;20052;-86
2024/02/16 00:53:34;;;;;;;5.45;4.32;;;;;;;8.62;97.20;98528.31;5031435;28;20036;-86
2024/02/16 00:55:59;;;;;;;8.13;4.60;;;;;;;8.79;97.36;98544.25;5013153;28;20481;-86
2024/02/16 00:58:25;;;;;;;8.60;3.75;;;;;;;8.59;97.35;98555.41;5031813;28;20033;-86
2024/02/16 01:00:50;;;;;;;4.47;3.40;;;;;;;8.32;97.58;98501.28;5029957;28;20029;-86
2024/02/16 01:03:15;;;;;;;7.70;4.38;;;;;;;8.04;99.17;98518.03;5014092;28;20022;-86
2024/02/16 01:05:41;;;;;;;14.55;5.10;;;;;;;7.95;99.29;98500.88;4994661;28;20061;-86
2024/02/16 01:08:07;;;;;;;10.68;5.57;;;;;;;7.71;100.00;98490.63;5027254;28;20079;-86
2024/02/16 01:10:32;;;;;;;6.18;4.43;;;;;;;7.96;100.00;98514.97;5027499;28;20693;-86
2024/02/16 01:12:58;;;;;;;12.85;5.38;;;;;;;8.35;99.29;98538.00;5008827;28;20041;-85
2024/02/16 01:15:23;;;;;;;7.53;4.13;;;;;;;8.53;99.15;98532.44;5011178;28;20026;-87
2024/02/16 01:17:48;;;;;;;6.78;3.95;;;;;;;8.61;98.15;98536.53;5012674;28;20051;-86
2024/02/16 01:20:14;;;;;;;5.93;3.85;;;;;;;8.64;97.62;98528.06;5027746;28;20033;-86
2024/02/16 01:22:40;;;;;;;4.82;4.15;;;;;;;8.74;96.95;98542.34;4995939;28;20052;-87
2024/02/16 01:25:07;;;;;;;7.55;4.90;;;;;;;8.61;97.15;98544.50;5024989;28;20034;-86
2024/02/16 01:27:32;;;;;;;8.70;4.25;;;;;;;8.52;97.29;98530.81;5024553;28;20093;-87
2024/02/16 01:29:58;;;;;;;6.70;4.35;;;;;;;8.31;97.03;98502.31;5006820;28;20037;-87
2024/02/16 01:32:23;;;;;;;6.10;4.60;;;;;;;8.50;97.49;98558.69;5012740;28;20388;-86
2024/02/16 01:34:49;;;;;;;5.10;4.05;;;;;;;8.48;97.36;98543.00;5012514;28;20064;-85
2024/02/16 01:37:15;;;;;;;5.18;4.15;;;;;;;8.66;96.79;98537.44;5028996;28;20021;-86
2024/02/16 01:39:40;;;;;;;6.00;4.35;;;;;;;8.45;96.59;98522.22;5027731;28;20044;-86
2024/02/16 01:42:06;;;;;;;8.68;4.50;;;;;;;8.30;96.63;98498.03;5027359;28;20067;-86
2024/02/16 01:44:31;;;;;;;7.68;4.32;;;;;;;8.51;97.30;98553.16;5008124;28;20030;-86
2024/02/16 01:46:57;;;;;;;6.05;4.35;;;;;;;8.39;97.06;98544.44;5030233;28;20126;-87
2024/02/16 01:49:22;;;;;;;9.00;3.92;;;;;;;8.37;96.84;98513.81;5009290;28;20395;-86
2024/02/16 01:51:48;;;;;;;8.13;4.60;;;;;;;8.43;96.69;98537.59;5026586;28;20040;-86
2024/02/16 01:54:17;;;;;;;7.03;4.45;;;;;;;8.32;96.87;98526.00;5036851;28;20025;-86
2024/02/16 01:56:43;;;;;;;5.90;4.22;;;;;;;8.02;97.89;98498.06;5016547;28;20030;-86
2024/02/16 01:59:09;;;;;;;7.50;3.60;;;;;;;8.09;97.99;98533.28;5006598;28;20042;-86
2024/02/16 02:01:34;;;;;;;5.95;3.97;;;;;;;8.30;97.27;98533.41;5017226;28;20099;-86
2024/02/16 02:04:00;;;;;;;4.65;3.58;;;;;;;8.14;97.54;98526.22;5015029;28;20033;-87
2024/02/16 02:06:26;;;;;;;7.18;3.97;;;;;;;8.16;98.01;98512.66;5013546;28;20041;-86
2024/02/16 02:08:51;;;;;;;9.70;4.47;;;;;;;8.21;97.44;98510.88;5011666;28;20140;-87
2024/02/16 02:11:17;;;;;;;7.35;4.32;;;;;;;8.08;97.22;98503.22;5009216;28;20030;-86
2024/02/16 02:13:42;;;;;;;10.50;4.20;;;;;;;8.16;97.51;98513.47;5029688;28;20492;-86
2024/02/16 02:16:10;;;;;;;7.75;4.30;;;;;;;8.16;97.52;98513.47;5027628;28;20033;-87
2024/02/16 02:18:35;;;;;;;7.85;4.05;;;;;;;8.08;98.50;98494.47;5014738;28;20037;-87
2024/02/16 02:21:00;;;;;;;5.43;4.72;;;;;;;8.13;97.74;98515.78;5001267;28;20040;-86
2024/02/16 02:23:26;;;;;;;6.25;4.22;;;;;;;7.84;97.37;98461.09;5016554;28;20064;-86
2024/02/16 02:25:51;;;;;;;5.57;3.72;;;;;;;7.97;98.53;98492.69;5029343;28;20029;-86
2024/02/16 02:28:17;;;;;;;11.82;4.28;;;;;;;7.97;98.98;98492.69;5026906;28;20029;-87
2024/02/16 02:30:45;;;;;;;8.50;3.70;;;;;;;8.01;99.59;98504.44;4997739;28;20052;-86
2024/02/16 02:33:12;;;;;;;6.00;4.00;;;;;;;7.96;99.09;98472.47;5013184;28;20594;-86
2024/02/16 02:35:38;;;;;;;10.82;4.07;;;;;;;8.09;98.27;98482.78;5016011;28;20068;-86
2024/02/16 02:38:04;;;;;;;10.23;4.28;;;;;;;7.84;99.14;98440.63;5017737;28;20049;-86
2024/02/16 02:40:30;;;;;;;4.68;4.10;;;;;;;8.20;98.53;98495.19;5028927;28;20364;-86
2024/02/16 02:42:55;;;;;;;6.80;4.40;;;;;;;8.16;98.50;98492.22;5030527;28;20036;-86
2024/02/16 02:45:21;;;;;;;6.88;3.45;;;;;;;8.14;99.29;98498.81;5032535;28;20025;-86
2024/02/16 02:47:46;;;;;;;6.70;4.65;;;;;;;8.06;99.13;98489.38;5029377;28;20219;-86
2024/02/16 02:50:12;;;;;;;7.65;4.03;;;;;;;7.86;99.72;98469.63;5029212;28;20142;-85
2024/02/16 02:52:37;;;;;;;6.47;3.85;;;;;;;7.83;99.98;98441.69;5009580;28;20040;-85
2024/02/16 02:55:03;;;;;;;7.32;4.32;;;;;;;8.07;99.84;98475.06;5026225;28;20031;-86
2024/02/16 02:57:29;;;;;;;5.28;3.55;;;;;;;8.19;99.20;98472.31;4996774;28;20049;-86
2024/02/16 03:00:03;;;;;;;8.07;4.40;;;;;;;7.89;99.27;98431.94;5029532;28;20485;-87
2024/02/16 03:02:29;;;;;;;10.32;4.90;;;;;;;7.96;99.73;98433.41;5030632;28;20358;-87
2024/02/16 03:04:54;;;;;;;7.00;4.05;;;;;;;8.03;99.69;98433.25;5030902;28;20481;-86
2024/02/16 03:07:20;;;;;;;5.43;3.85;;;;;;;7.83;99.33;98420.44;5032021;28;20033;-86
2024/02/16 03:09:46;;;;;;;4.70;3.70;;;;;;;7.93;99.87;98441.06;5029793;28;20035;-87
2024/02/16 03:12:11;;;;;;;5.70;4.57;;;;;;;8.02;100.00;98459.00;4998714;28;20390;-86
2024/02/16 03:14:37;;;;;;;6.47;3.70;;;;;;;7.75;99.45;98415.53;5011227;28;20052;-85
2024/02/16 03:17:03;;;;;;;6.28;3.72;;;;;;;8.20;99.22;98466.75;5031636;28;20315;-86
2024/02/16 03:19:29;;;;;;;6.57;4.78;;;;;;;7.64;99.29;98383.72;5009918;28;20034;-86
2024/02/16 03:21:54;;;;;;;8.25;4.30;;;;;;;8.09;100.00;98466.81;5014140;28;20496;-86
2024/02/16 03:24:20;;;;;;;11.25;4.13;;;;;;;7.63;99.82;98400.69;5023579;28;20029;-86
2024/02/16 03:26:47;;;;;;;4.55;3.83;;;;;;;8.06;99.65;98460.13;5006825;28;20045;-86
2024/02/16 03:29:13;;;;;;;5.32;4.22;;;;;;;8.19;99.58;98467.00;5013718;28;20486;-87
2024/02/16 03:31:38;;;;;;;7.15;4.63;;;;;;;8.16;99.92;98465.63;5014934;28;20040;-86
2024/02/16 03:34:03;;;;;;;10.85;4.05;;;;;;;8.22;98.98;98464.66;5025107;28;20057;-86
2024/02/16 03:36:30;;;;;;;7.95;4.30;;;;;;;8.07;99.23;98455.63;5031496;28;20556;-86
2024/02/16 03:38:56;;;;;;;7.50;3.95;;;;;;;7.98;99.41;98436.63;5013303;28;20486;-86
2024/02/16 03:41:23;;;;;;;12.07;4.53;;;;;;;8.03;99.00;98450.00;5030308;28;20044;-86
2024/02/16 03:43:48;;;;;;;6.63;4.32;;;;;;;7.86;99.84;98432.44;5024308;28;20032;-86
2024/02/16 03:46:14;;;;;;;9.05;4.63;;;;;;;8.17;98.58;98461.09;5011777;28;20045;-86
2024/02/16 03:48:42;;;;;;;13.85;4.75;;;;;;;8.01;99.10;98464.56;5028394;28;20053;-86
2024/02/16 03:51:07;;;;;;;11.75;5.60;;;;;;;8.03;99.14;98457.16;5015742;28;20021;-86
2024/02/16 03:53:33;;;;;;;8.90;4.85;;;;;;;8.14;98.78;98461.59;5029035;28;20036;-86
2024/02/16 03:55:59;;;;;;;7.15;4.55;;;;;;;8.18;97.78;98462.72;5033703;28;20030;-86
2024/02/16 03:58:24;;;;;;;5.85;4.53;;;;;;;8.17;97.80;98440.66;5007449;28;20030;-85
2024/02/16 04:00:50;;;;;;;7.45;4.60;;;;;;;8.32;96.88;98452.59;5024900;28;20095;-86
2024/02/16 04:03:16;;;;;;;8.45;4.45;;;;;;;8.16;97.17;98456.84;5027853;28;20036;-85
2024/02/16 04:05:42;;;;;;;9.43;4.38;;;;;;;8.22;97.04;98459.34;5030214;28;20034;-85
2024/02/16 04:08:07;;;;;;;7.70;4.60;;;;;;;7.93;97.28;98414.50;5012859;28;20087;-86
2024/02/16 04:10:34;;;;;;;9.27;5.07;;;;;;;8.09;97.63;98445.56;5011037;28;20500;-86
2024/02/16 04:12:59;;;;;;;6.07;4.53;;;;;;;8.02;97.90;98456.34;5018305;28;20432;-86
2024/02/16 04:15:25;;;;;;;8.52;4.40;;;;;;;8.01;97.99;98452.09;5033676;28;20030;-86
2024/02/16 04:17:51;;;;;;;8.38;4.80;;;;;;;8.03;97.67;98449.19;5011463;28;20026;-86
2024/02/16 04:20:17;;;;;;;8.75;4.75;;;;;;;7.97;98.23;98428.91;5027639;28;20033;-87
2024/02/16 04:22:43;;;;;;;6.70;4.95;;;;;;;8.06;98.18;98443.41;5031484;28;20382;-87
2024/02/16 04:25:09;;;;;;;7.07;4.57;;;;;;;8.01;97.63;98432.69;4995260;28;20040;-86
2024/02/16 04:27:35;;;;;;;7.40;4.40;;;;;;;7.88;97.65;98417.06;5031625;28;20136;-86
2024/02/16 04:30:01;;;;;;;6.22;4.70;;;;;;;7.96;97.88;98435.25;5028408;28;20064;-87
2024/02/16 04:32:27;;;;;;;5.35;4.82;;;;;;;7.62;98.33;98372.53;5008719;28;20033;-86
2024/02/16 04:34:52;;;;;;;10.73;4.88;;;;;;;8.10;98.29;98441.88;5024297;28;20039;-86
2024/02/16 04:37:21;;;;;;;7.68;4.50;;;;;;;8.06;97.79;98454.03;5024868;28;20026;-86
2024/02/16 04:39:47;;;;;;;7.75;4.63;;;;;;;8.14;97.55;98453.63;5014148;28;20033;-86
2024/02/16 04:42:12;;;;;;;7.68;4.60;;;;;;;8.14;97.84;98462.41;5030340;28;20041;-86
2024/02/16 04:44:38;;;;;;;9.18;4.75;;;;;;;8.05;97.53;98455.06;5028828;28;20421;-86
2024/02/16 04:47:04;;;;;;;10.07;5.70;;;;;;;8.13;97.49;98449.34;5026000;28;20488;-85
2024/02/16 04:49:29;;;;;;;6.22;4.53;;;;;;;8.05;97.83;98453.22;5029439;28;20056;-86
2024/02/16 04:51:55;;;;;;;10.60;5.40;;;;;;;8.04;98.58;98454.25;5011404;28;20482;-86
2024/02/16 04:54:20;;;;;;;8.73;4.90;;;;;;;8.10;97.46;98447.19;5024229;28;20033;-87
2024/02/16 04:56:46;;;;;;;8.82;5.15;;;;;;;8.21;97.34;98448.97;5011494;28;20032;-85
2024/02/16 04:59:12;;;;;;;5.82;4.40;;;;;;;8.37;96.99;98464.09;5010783;28;20083;-86
2024/02/16 05:01:37;;;;;;;5.95;5.30;;;;;;;8.19;96.67;98470.44;5030928;28;20577;-86
2024/02/16 05:04:03;;;;;;;8.02;4.95;;;;;;;8.20;96.82;98440.16;5011827;28;20038;-86
2024/02/16 05:06:28;;;;;;;6.80;4.78;;;;;;;8.17;96.97;98461.09;5014308;28;20523;-87
2024/02/16 05:08:56;;;;;;;8.32;5.13;;;;;;;8.18;96.91;98441.47;5020737;28;20043;-87
2024/02/16 05:11:24;;;;;;;8.15;4.38;;;;;;;8.39;96.47;98443.38;5013894;28;20117;-86
2024/02/16 05:13:50;;;;;;;8.90;6.00;;;;;;;8.16;97.71;98444.38;5019406;28;20095;-86
2024/02/16 05:16:16;;;;;;;10.15;4.75;;;;;;;8.11;96.30;98432.84;5030488;28;20079;-86
2024/02/16 05:18:42;;;;;;;7.07;4.53;;;;;;;7.86;98.75;98448.38;5012438;28;20044;-86
2024/02/16 05:21:07;;;;;;;7.75;6.07;;;;;;;7.65;98.54;98452.53;5032565;28;20026;-87
2024/02/16 05:23:33;;;;;;;7.82;5.75;;;;;;;7.84;99.32;98443.28;5027969;28;20033;-86
2024/02/16 05:25:58;;;;;;;15.23;6.35;;;;;;;7.54;99.61;98432.97;5012224;28;20033;-87
2024/02/16 05:28:24;;;;;;;6.60;4.72;;;;;;;7.95;99.72;98453.03;5011710;28;20025;-87
2024/02/16 05:30:49;;;;;;;8.20;6.22;;;;;;;7.51;99.84;98432.66;5016499;28;20090;-86
2024/02/16 05:33:15;;;;;;;8.52;4.88;;;;;;;7.75;100.00;98420.84;5010571;28;20040;-86
2024/02/16 05:35:40;;;;;;;9.18;5.22;;;;;;;7.75;100.00;98414.72;5015400;28;20026;-86
2024/02/16 05:38:20;;;;;;;10.93;5.68;;;;;;;8.11;99.15;98448.78;4996455;28;20036;-87
2024/02/16 05:40:56;;;;;;;6.30;5.13;;;;;;;8.26;97.55;98443.72;5030086;28;20401;-86
2024/02/16 05:43:23;;;;;;;9.27;4.80;;;;;;;8.24;97.53;98443.13;5021188;28;20030;-87
2024/02/16 05:45:49;;;;;;;8.80;5.05;;;;;;;7.84;99.23;98434.53;5024948;28;20628;-87
2024/02/16 05:48:14;;;;;;;7.45;4.97;;;;;;;7.95;98.70;98441.63;5022933;28;20063;-85
2024/02/16 05:50:40;;;;;;;9.02;4.97;;;;;;;7.60;99.22;98419.78;5031023;28;20029;-86
2024/02/16 05:53:06;;;;;;;6.85;4.63;;;;;;;7.96;100.00;98444.03;5034296;28;20048;-86
2024/02/16 05:55:32;;;;;;;9.52;5.20;;;;;;;7.86;99.44;98416.50;5021501;28;20389;-87
2024/02/16 05:57:58;;;;;;;8.73;6.68;;;;;;;7.67;99.59;98423.06;5005649;28;20048;-87
2024/02/16 06:00:23;;;;;;;7.43;5.25;;;;;;;8.01;99.47;98430.03;5029309;28;20480;-85
2024/02/16 06:02:49;;;;;;;5.50;4.35;;;;;;;8.32;97.88;98421.50;5026784;28;20026;-86
2024/02/16 06:05:15;;;;;;;6.88;4.57;;;;;;;8.28;97.02;98431.00;5035535;28;20030;-86
2024/02/16 06:07:40;;;;;;;4.43;4.00;;;;;;;8.42;96.81;98442.91;5039197;28;20072;-85
2024/02/16 06:10:10;;;;;;;5.75;4.80;;;;;;;8.31;97.16;98446.47;5033422;28;20079;-86
2024/02/16 06:12:39;;;;;;;6.93;4.75;;;;;;;8.34;97.34;98445.19;5018176;28;20037;-86
2024/02/16 06:15:05;;;;;;;7.85;4.38;;;;;;;8.21;96.97;98430.34;5035830;28;20055;-85
2024/02/16 06:17:31;;;;;;;7.25;4.75;;;;;;;8.19;97.47;98437.75;5039498;28;20033;-86
2024/02/16 06:19:56;;;;;;;6.15;4.75;;;;;;;8.18;98.44;98447.59;5039769;28;20038;-86
2024/02/16 06:22:22;;;;;;;10.07;5.68;;;;;;;8.02;99.49;98442.25;5042072;28;20056;-86
2024/02/16 06:24:47;;;;;;;7.90;4.88;;;;;;;8.35;97.94;98442.28;5040021;28;20163;-86
2024/02/16 06:27:13;;;;;;;9.10;5.38;;;;;;;8.12;98.27;98447.75;5038727;28;20021;-86
2024/02/16 06:29:38;;;;;;;5.25;4.20;;;;;;;8.30;97.81;98461.59;5044152;28;20488;-87
2024/02/16 06:32:04;;;;;;;10.57;5.93;;;;;;;8.02;97.70;98437.75;5041136;28;20049;-86
2024/02/16 06:34:30;;;;;;;6.90;4.57;;;;;;;8.45;97.08;98461.06;5040322;28;20021;-86
2024/02/16 06:36:56;;;;;;;6.30;5.65;;;;;;;7.75;99.10;98435.97;5038113;28;20029;-86
2024/02/16 06:39:21;;;;;;;8.65;5.45;;;;;;;7.73;100.00;98472.59;5038574;28;20029;-86
2024/02/16 06:41:47;;;;;;;6.80;4.63;;;;;;;7.93;100.00;98488.91;5047126;28;20049;-86
2024/02/16 06:44:13;;;;;;;9.93;6.63;;;;;;;7.98;99.25;98478.34;5021099;28;20035;-86
2024/02/16 06:46:38;;;;;;;7.70;5.53;;;;;;;7.80;100.00;98486.53;5020000;28;20025;-86
2024/02/16 06:49:04;;;;;;;5.38;4.88;;;;;;;8.20;98.63;98481.91;5040038;28;20033;-85
2024/02/16 06:51:29;;;;;;;7.80;4.82;;;;;;;8.37;98.40;98481.91;5019166;28;20050;-86
2024/02/16 06:53:55;;;;;;;7.63;4.90;;;;;;;8.50;96.53;98471.75;5038591;28;20448;-86
2024/02/16 06:56:20;;;;;;;6.88;4.93;;;;;;;8.55;96.50;98474.50;5017559;28;20021;-86
2024/02/16 06:58:47;;;;;;;6.55;4.03;;;;;;;8.32;97.27;98464.06;5038354;28;20056;-86
2024/02/16 07:01:13;;;;;;;6.13;5.00;;;;;;;8.56;97.29;98470.75;5035112;28;20051;-86
2024/02/16 07:03:38;;;;;;;7.28;4.20;;;;;;;8.02;96.43;98375.81;5036486;28;20033;-86
2024/02/16 07:06:07;;;;;;;7.78;5.07;;;;;;;8.43;96.66;98439.19;5037116;28;20033;-87
2024/02/16 07:08:33;;;;;;;4.80;3.97;;;;;;;8.37;96.32;98434.84;5025522;28;20031;-87
2024/02/16 07:10:58;;;;;;;6.72;4.55;;;;;;;8.46;96.28;98454.66;5043864;28;20559;-87
2024/02/16 07:13:24;;;;;;;6.80;5.00;;;;;;;8.62;95.62;98448.53;5026287;28;20151;-86
2024/02/16 07:15:50;;;;;;;8.65;5.43;;;;;;;8.64;96.00;98473.03;5004654;28;20025;-87
2024/02/16 07:18:15;;;;;;;7.38;4.57;;;;;;;8.36;97.12;98440.44;5038031;28;20048;-87
2024/02/16 07:20:41;;;;;;;8.73;4.50;;;;;;;8.26;96.20;98430.44;5023213;28;20029;-87
2024/02/16 07:23:06;;;;;;;6.57;5.07;;;;;;;8.48;96.98;98473.84;5005855;28;20033;-87
2024/02/16 07:25:31;;;;;;;7.10;4.57;;;;;;;8.30;96.57;98458.94;5022089;28;20061;-86
2024/02/16 07:27:57;;;;;;;10.23;4.70;;;;;;;8.44;96.92;98493.19;5024016;28;20195;-87
2024/02/16 07:30:22;;;;;;;5.95;4.50;;;;;;;8.51;97.66;98499.16;5038908;28;20033;-86
2024/02/16 07:32:50;;;;;;;8.50;5.03;;;;;;;8.08;97.01;98423.50;5005714;28;20029;-87
2024/02/16 07:35:16;;;;;;;6.50;5.30;;;;;;;8.16;96.86;98465.63;5016474;28;20022;-87
2024/02/16 07:37:42;;;;;;;7.63;4.78;;;;;;;8.36;97.38;98449.22;5025695;28;20656;-86
2024/02/16 07:40:09;;;;;;;5.75;4.90;;;;;;;8.26;97.99;98492.41;5039918;28;20029;-87
2024/02/16 07:42:39;;;;;;;9.93;4.25;;;;;;;8.44;98.00;98479.88;5038660;28;20025;-87
2024/02/16 07:45:04;;;;;;;5.22;4.43;;;;;;;8.20;97.89;98472.06;5036766;28;21396;-86
2024/02/16 07:47:31;;;;;;;7.47;4.85;;;;;;;8.37;98.20;98503.19;5003454;28;20034;-87
2024/02/16 07:49:57;;;;;;;6.22;4.65;;;;;;;8.53;97.53;98491.72;5038798;28;20051;-87
2024/02/16 07:52:22;;;;;;;7.47;4.75;;;;;;;8.01;97.77;98428.19;5038635;28;20059;-87
2024/02/16 07:54:47;;;;;;;7.65;5.25;;;;;;;8.46;98.39;98497.22;5022546;28;20033;-86
2024/02/16 07:57:14;;;;;;;6.22;4.40;;;;;;;8.37;96.94;98488.03;5040996;28;20039;-86
2024/02/16 07:59:40;;;;;;;8.10;5.28;;;;;;;8.44;97.55;98482.56;5041139;28;20045;-87
2024/02/16 08:02:07;;;;;;;5.28;4.60;;;;;;;8.59;97.46;98501.38;5025314;28;20025;-86
2024/02/16 08:04:32;;;;;;;10.90;6.45;;;;;;;8.51;99.24;98501.81;5020403;28;20036;-87
2024/02/16 08:06:58;;;;;;;7.63;4.55;;;;;;;8.50;97.47;98479.72;5023891;28;20021;-87
2024/02/16 08:09:23;;;;;;;7.97;5.10;;;;;;;8.55;96.59;98458.53;5010714;28;20401;-87
2024/02/16 08:11:48;;;;;;;8.48;5.45;;;;;;;8.70;96.71;98490.66;5037852;28;20037;-87
2024/02/16 08:14:14;;;;;;;8.27;5.10;;;;;;;8.65;97.76;98479.16;5045476;28;20021;-86
2024/02/16 08:16:39;;;;;;;7.50;4.82;;;;;;;8.71;97.01;98496.78;5020124;28;20029;-86
2024/02/16 08:19:05;;;;;;;8.85;5.28;;;;;;;8.69;97.80;98486.38;5007673;28;20032;-86
2024/02/16 08:21:30;;;;;;;6.90;4.82;;;;;;;8.72;98.18;98503.72;5021438;28;20029;-86
2024/02/16 08:23:56;;;;;;;7.72;4.88;;;;;;;8.61;97.88;98473.50;5026586;28;20499;-87
2024/02/16 08:26:21;;;;;;;6.18;4.88;;;;;;;8.96;96.20;98524.56;5023137;28;20128;-86
2024/02/16 08:28:48;;;;;;;5.43;4.78;;;;;;;9.03;95.74;98533.19;5019478;28;20529;-86
2024/02/16 08:31:18;;;;;;;7.90;4.72;;;;;;;9.00;96.21;98527.53;5040053;28;20079;-86
2024/02/16 08:33:45;;;;;;;9.88;5.63;;;;;;;8.96;97.21;98535.19;5035594;28;20093;-87
2024/02/16 08:36:10;;;;;;;10.95;5.30;;;;;;;8.95;96.88;98528.25;5026038;28;20057;-86
2024/02/16 08:38:36;;;;;;;6.75;4.85;;;;;;;9.02;96.80;98523.56;5012860;28;20060;-87
2024/02/16 08:41:03;;;;;;;8.93;5.32;;;;;;;8.80;96.75;98482.81;5033711;28;20034;-86
2024/02/16 08:43:28;;;;;;;8.52;5.57;;;;;;;9.04;97.22;98510.81;5022024;28;20045;-86
2024/02/16 08:45:54;;;;;;;5.78;5.05;;;;;;;9.24;96.35;98520.13;5042168;28;20476;-87
2024/02/16 08:48:20;;;;;;;11.02;5.65;;;;;;;8.91;98.89;98513.81;5047822;28;20116;-87
2024/02/16 08:50:45;;;;;;;8.90;4.75;;;;;;;9.14;96.97;98523.47;5010344;28;20130;-86
2024/02/16 08:53:11;;;;;;;7.68;4.82;;;;;;;9.26;95.73;98531.34;5009876;28;20037;-86
2024/02/16 08:55:36;;;;;;;7.47;5.82;;;;;;;9.16;94.69;98485.94;5041833;28;20107;-87
2024/02/16 08:58:02;;;;;;;6.68;4.60;;;;;;;9.22;95.18;98491.06;5020063;28;20033;-86
2024/02/16 09:00:28;;;;;;;6.80;4.88;;;;;;;9.47;94.92;98522.53;5019317;28;20468;-86
2024/02/16 09:02:53;;;;;;;5.38;4.18;;;;;;;9.28;95.01;98484.78;5023896;28;20030;-87
2024/02/16 09:05:20;;;;;;;8.85;5.53;;;;;;;9.50;94.86;98516.72;5037687;28;20042;-86
2024/02/16 09:07:47;;;;;;;7.78;5.25;;;;;;;9.50;95.74;98514.06;5042871;28;20519;-86
2024/02/16 09:10:14;;;;;;;8.93;5.10;;;;;;;9.48;95.79;98508.94;5035611;28;20033;-87
2024/02/16 09:12:39;;;;;;;7.07;4.78;;;;;;;9.54;95.64;98512.50;5043905;28;20389;-86
2024/02/16 09:15:05;;;;;;;7.30;4.78;;;;;;;9.53;95.75;98505.53;5039382;28;20051;-86
2024/02/16 09:17:31;;;;;;;7.38;4.88;;;;;;;9.64;95.07;98520.59;5018242;28;20034;-87
2024/02/16 09:19:57;;;;;;;8.13;4.88;;;;;;;9.71;94.89;98518.53;5021109;28;20036;-86
2024/02/16 09:22:22;;;;;;;12.27;5.25;;;;;;;9.58;94.84;98497.63;5043011;28;20033;-87
2024/02/16 09:24:48;;;;;;;5.72;4.65;;;;;;;9.65;95.34;98509.66;5038533;28;20029;-86
2024/02/16 09:27:13;;;;;;;9.00;4.40;;;;;;;9.59;94.23;98496.53;5031302;28;20033;-86
2024/02/16 09:29:39;;;;;;;7.72;4.82;;;;;;;9.54;95.60;98499.16;5045280;28;20056;-86
2024/02/16 09:32:05;;;;;;;7.53;4.78;;;;;;;9.75;95.08;98517.78;5039742;28;20037;-87
2024/02/16 09:34:31;;;;;;;7.35;5.10;;;;;;;9.70;94.62;98504.41;5039402;28;20083;-87
2024/02/16 09:36:56;;;;;;;8.50;4.20;;;;;;;9.53;94.38;98470.91;5027465;28;20087;-87
2024/02/16 09:39:22;;;;;;;4.88;3.92;;;;;;;9.68;94.57;98509.19;5033411;28;20034;-86
2024/02/16 09:41:53;;;;;;;5.32;3.88;;;;;;;9.79;93.73;98510.91;5026826;28;20128;-87
2024/02/16 09:44:21;;;;;;;11.35;4.47;;;;;;;9.77;94.19;98506.88;5004193;28;20084;-85
2024/02/16 09:46:46;;;;;;;4.15;3.75;;;;;;;9.61;94.00;98489.13;5041318;28;20056;-87
2024/02/16 09:49:12;;;;;;;6.00;4.07;;;;;;;9.98;93.72;98545.22;5044560;28;20024;-86
2024/02/16 09:51:37;;;;;;;5.35;4.25;;;;;;;9.83;94.71;98519.19;5020459;28;20076;-86
2024/02/16 09:54:03;;;;;;;7.57;4.25;;;;;;;10.01;94.37;98528.69;5024634;28;20087;-86
2024/02/16 09:56:29;;;;;;;5.72;3.70;;;;;;;9.79;94.91;98507.41;5022203;28;20033;-86
2024/02/16 09:58:54;;;;;;;5.38;3.85;;;;;;;10.00;95.26;98535.91;5041322;28;20044;-86
2024/02/16 10:01:21;;;;;;;4.50;3.83;;;;;;;9.94;94.63;98517.44;5039713;28;20033;-86
2024/02/16 10:03:47;;;;;;;7.00;4.07;;;;;;;9.99;94.02;98526.28;5017843;28;20033;-86
2024/02/16 10:06:15;;;;;;;10.82;3.70;;;;;;;10.07;93.62;98525.81;5036425;28;20471;-87
2024/02/16 10:08:53;;;;;;;4.00;3.53;;;;;;;9.66;93.62;98460.66;5018621;28;20030;-86
2024/02/16 10:11:24;;;;;;;6.53;3.97;;;;;;;10.04;94.85;98536.19;5041008;28;20029;-87
2024/02/16 10:14:03;;;;;;;7.32;3.67;;;;;;;10.14;94.61;98537.13;5040208;28;20108;-86
2024/02/16 10:16:30;;;;;;;4.38;3.53;;;;;;;10.24;93.21;98537.19;5045190;28;20388;-86
2024/02/16 10:18:57;;;;;;;9.43;3.85;;;;;;;10.25;93.28;98543.34;5037715;28;20025;-85
2024/02/16 10:21:29;;;;;;;9.40;3.22;;;;;;;10.33;93.74;98546.34;5043698;28;20029;-87
2024/02/16 10:24:21;;;;;;;6.03;3.40;;;;;;;10.39;92.99;98542.69;5045862;28;20025;-87
2024/02/16 10:26:46;;;;;;;9.52;4.82;;;;;;;10.31;92.45;98511.13;5047508;28;20030;-86
2024/02/16 10:29:13;;;;;;;5.88;3.78;;;;;;;10.48;92.81;98533.13;5024480;28;20579;-87
2024/02/16 10:31:39;;;;;;;3.55;3.10;;;;;;;10.49;92.10;98520.59;5040245;28;20061;-86
2024/02/16 10:34:06;;;;;;;4.57;3.45;;;;;;;10.42;92.38;98496.00;5046752;28;20239;-87
2024/02/16 10:36:33;;;;;;;7.97;3.40;;;;;;;10.34;92.31;98459.94;5042961;28;20071;-86
2024/02/16 10:39:01;;;;;;;10.52;3.70;;;;;;;10.53;91.61;98484.34;5011239;28;20041;-86
2024/02/16 10:41:31;;;;;;;4.80;3.35;;;;;;;10.92;92.28;98524.91;5027281;28;20029;-86
2024/02/16 10:43:56;;;;;;;10.18;3.67;;;;;;;10.83;92.32;98515.78;5040626;28;20037;-87
2024/02/16 10:46:24;;;;;;;11.10;3.67;;;;;;;10.87;92.17;98512.34;5039239;28;20442;-86
2024/02/16 10:48:49;;;;;;;6.90;3.78;;;;;;;10.95;90.84;98517.19;5038936;28;20524;-86
2024/02/16 10:51:19;;;;;;;5.85;4.28;;;;;;;11.08;90.77;98522.06;5051642;28;20029;-86
2024/02/16 10:53:47;;;;;;;6.93;3.70;;;;;;;11.11;91.30;98523.41;5014022;28;20046;-86
2024/02/16 10:56:13;;;;;;;5.15;3.80;;;;;;;11.13;91.96;98514.06;5038121;28;20040;-87
2024/02/16 10:58:40;;;;;;;7.38;3.42;;;;;;;11.09;91.91;98534.34;5028668;28;20514;-86
2024/02/16 11:01:12;;;;;;;4.75;3.45;;;;;;;11.06;91.46;98520.69;5023240;28;20041;-86
2024/02/16 11:03:41;;;;;;;9.35;4.43;;;;;;;11.20;91.08;98527.97;5031572;28;20034;-86
2024/02/16 11:06:18;;;;;;;6.32;4.03;;;;;;;11.30;90.85;98524.56;5040344;28;20030;-86
2024/02/16 11:08:48;;;;;;;;;;;;;;;11.22;90.45;98535.75;5008693;28;20041;-86
2024/02/16 11:11:23;;;;;;;9.00;4.53;;;;;;;10.96;91.56;98505.44;5040304;28;19967;-86
2024/02/16 11:13:48;;;;;;;6.97;4.28;;;;;;;10.68;90.28;98446.28;5038318;28;20035;-85
2024/02/16 11:16:17;;;;;;;5.50;4.18;;;;;;;11.26;91.66;98526.97;5036671;28;20090;-87
2024/02/16 11:18:47;;;;;;;7.43;3.97;;;;;;;11.17;91.65;98509.00;5038988;28;20060;-86
2024/02/16 11:21:15;;;;;;;6.95;4.63;;;;;;;11.23;91.63;98508.78;5037455;28;20178;-86
2024/02/16 11:23:40;;;;;;;7.53;3.17;;;;;;;11.28;90.50;98508.81;5021469;28;20120;-85
2024/02/16 11:26:11;;;;;;;8.40;4.25;;;;;;;11.60;89.44;98524.66;5040048;28;20057;-85
2024/02/16 11:28:37;;;;;;;8.70;4.18;;;;;;;11.72;89.84;98538.66;5043455;28;20032;-84
2024/02/16 11:31:03;;;;;;;13.10;4.45;;;;;;;11.46;90.35;98530.78;5036790;28;20099;-84
2024/02/16 11:33:30;;;;;;;10.43;3.65;;;;;;;11.49;89.02;98523.03;5041100;28;20049;-86